sensor_id;sensor_type;location;lat;lon;timestamp;pressure;altitude;pressure_sealevel;temperature;humidity
48216;BME280;34005;48.844;10.098;2024-01-15T00:02:04;95578.41;;;-2.17;69.82
48216;BME280;34005;48.844;10.098;2024-01-15T00:04:36;95579.50;;;-2.10;70.86
48216;BME280;34005;48.844;10.098;2024-01-15T00:07:04;95571.19;;;-2.02;70.01
48216;BME280;34005;48.844;10.098;2024-01-15T00:09:31;95575.81;;;-1.96;70.07
48216;BME280;34005;48.844;10.098;2024-01-15T00:12:01;95576.47;;;-1.94;69.42
48216;BME280;34005;48.844;10.098;2024-01-15T00:14:29;95570.41;;;-1.93;69.42
48216;BME280;34005;48.844;10.098;2024-01-15T00:16:57;95573.66;;;-1.91;69.52
48216;BME280;34005;48.844;10.098;2024-01-15T00:19:24;95563.72;;;-1.94;69.68
48216;BME280;34005;48.844;10.098;2024-01-15T00:21:53;95568.81;;;-1.94;69.33
48216;BME280;34005;48.844;10.098;2024-01-15T00:24:21;95556.72;;;-1.92;69.85
48216;BME280;34005;48.844;10.098;2024-01-15T00:26:48;95557.13;;;-1.87;69.46
48216;BME280;34005;48.844;10.098;2024-01-15T00:29:17;95544.47;;;-1.89;68.99
48216;BME280;34005;48.844;10.098;2024-01-15T00:31:45;95549.97;;;-1.93;68.88
48216;BME280;34005;48.844;10.098;2024-01-15T00:34:12;95561.94;;;-1.94;68.81
48216;BME280;34005;48.844;10.098;2024-01-15T00:36:40;95561.94;;;-1.94;68.78
48216;BME280;34005;48.844;10.098;2024-01-15T00:39:08;95556.84;;;-1.94;69.29
48216;BME280;34005;48.844;10.098;2024-01-15T00:41:37;95559.97;;;-1.90;69.13
48216;BME280;34005;48.844;10.098;2024-01-15T00:44:04;95561.56;;;-1.89;69.10
48216;BME280;34005;48.844;10.098;2024-01-15T00:46:42;95562.34;;;-1.89;69.06
48216;BME280;34005;48.844;10.098;2024-01-15T00:49:10;95565.47;;;-1.85;69.84
48216;BME280;34005;48.844;10.098;2024-01-15T00:51:39;95563.31;;;-1.80;69.67
48216;BME280;34005;48.844;10.098;2024-01-15T00:54:06;95567.38;;;-1.77;69.44
48216;BME280;34005;48.844;10.098;2024-01-15T00:56:34;95556.09;;;-1.75;69.41
48216;BME280;34005;48.844;10.098;2024-01-15T00:59:02;95547.59;;;-1.75;69.15
48216;BME280;34005;48.844;10.098;2024-01-15T01:01:29;95553.78;;;-1.78;69.10
48216;BME280;34005;48.844;10.098;2024-01-15T01:03:58;95555.66;;;-1.80;69.63
48216;BME280;34005;48.844;10.098;2024-01-15T01:06:26;95547.06;;;-1.79;69.67
48216;BME280;34005;48.844;10.098;2024-01-15T01:08:55;95549.63;;;-1.79;69.50
48216;BME280;34005;48.844;10.098;2024-01-15T01:11:23;95541.69;;;-1.76;68.82
48216;BME280;34005;48.844;10.098;2024-01-15T01:13:50;95541.00;;;-1.78;68.43
48216;BME280;34005;48.844;10.098;2024-01-15T01:16:18;95545.44;;;-1.80;68.67
48216;BME280;34005;48.844;10.098;2024-01-15T01:18:46;95543.56;;;-1.78;68.99
48216;BME280;34005;48.844;10.098;2024-01-15T01:21:15;95545.72;;;-1.73;69.41
48216;BME280;34005;48.844;10.098;2024-01-15T01:23:43;95542.06;;;-1.71;69.12
48216;BME280;34005;48.844;10.098;2024-01-15T01:26:10;95532.81;;;-1.72;69.25
48216;BME280;34005;48.844;10.098;2024-01-15T01:28:38;95536.72;;;-1.68;69.53
48216;BME280;34005;48.844;10.098;2024-01-15T01:31:05;95537.13;;;-1.62;69.94
48216;BME280;34005;48.844;10.098;2024-01-15T01:33:34;95531.88;;;-1.61;69.29
48216;BME280;34005;48.844;10.098;2024-01-15T01:36:07;95531.09;;;-1.61;69.41
48216;BME280;34005;48.844;10.098;2024-01-15T01:38:36;95532.00;;;-1.62;69.36
48216;BME280;34005;48.844;10.098;2024-01-15T01:41:04;95532.00;;;-1.62;69.03
48216;BME280;34005;48.844;10.098;2024-01-15T01:43:31;95528.53;;;-1.61;69.50
48216;BME280;34005;48.844;10.098;2024-01-15T01:46:00;95532.69;;;-1.60;69.05
48216;BME280;34005;48.844;10.098;2024-01-15T01:48:29;95530.00;;;-1.59;69.08
48216;BME280;34005;48.844;10.098;2024-01-15T01:50:59;95537.28;;;-1.54;69.27
48216;BME280;34005;48.844;10.098;2024-01-15T01:53:28;95529.59;;;-1.54;68.74
48216;BME280;34005;48.844;10.098;2024-01-15T01:55:58;95528.81;;;-1.55;68.53
48216;BME280;34005;48.844;10.098;2024-01-15T01:58:25;95518.56;;;-1.55;68.63
48216;BME280;34005;48.844;10.098;2024-01-15T02:00:53;95525.28;;;-1.54;68.90
48216;BME280;34005;48.844;10.098;2024-01-15T02:03:21;95525.16;;;-1.52;68.53
48216;BME280;34005;48.844;10.098;2024-01-15T02:05:49;95523.97;;;-1.48;68.64
48216;BME280;34005;48.844;10.098;2024-01-15T02:08:16;95523.56;;;-1.43;68.64
48216;BME280;34005;48.844;10.098;2024-01-15T02:10:44;95526.91;;;-1.43;68.74
48216;BME280;34005;48.844;10.098;2024-01-15T02:13:13;95520.72;;;-1.40;69.32
48216;BME280;34005;48.844;10.098;2024-01-15T02:15:41;95522.06;;;-1.36;69.02
48216;BME280;34005;48.844;10.098;2024-01-15T02:18:08;95524.50;;;-1.35;68.69
48216;BME280;34005;48.844;10.098;2024-01-15T02:20:36;95526.78;;;-1.32;69.01
48216;BME280;34005;48.844;10.098;2024-01-15T02:23:08;95524.09;;;-1.30;68.99
48216;BME280;34005;48.844;10.098;2024-01-15T02:25:37;95519.94;;;-1.31;69.19
48216;BME280;34005;48.844;10.098;2024-01-15T02:28:06;95527.19;;;-1.27;69.08
48216;BME280;34005;48.844;10.098;2024-01-15T02:30:37;95521.00;;;-1.24;69.12
48216;BME280;34005;48.844;10.098;2024-01-15T02:33:05;95509.41;;;-1.18;69.17
48216;BME280;34005;48.844;10.098;2024-01-15T02:35:33;95520.84;;;-1.13;68.86
48216;BME280;34005;48.844;10.098;2024-01-15T02:38:03;95525.84;;;-1.11;68.75
48216;BME280;34005;48.844;10.098;2024-01-15T02:40:33;95512.88;;;-1.10;68.65
48216;BME280;34005;48.844;10.098;2024-01-15T02:43:01;95510.19;;;-1.08;68.48
48216;BME280;34005;48.844;10.098;2024-01-15T02:45:28;95508.31;;;-1.06;68.42
48216;BME280;34005;48.844;10.098;2024-01-15T02:47:56;95508.03;;;-1.03;68.83
48216;BME280;34005;48.844;10.098;2024-01-15T02:50:24;95514.50;;;-0.99;68.61
48216;BME280;34005;48.844;10.098;2024-01-15T02:52:51;95507.50;;;-0.97;68.04
48216;BME280;34005;48.844;10.098;2024-01-15T02:55:19;95510.72;;;-0.95;68.25
48216;BME280;34005;48.844;10.098;2024-01-15T02:57:48;95508.84;;;-0.93;68.12
48216;BME280;34005;48.844;10.098;2024-01-15T03:00:16;95508.84;;;-0.93;68.27
48216;BME280;34005;48.844;10.098;2024-01-15T03:02:44;95507.91;;;-0.92;68.34
48216;BME280;34005;48.844;10.098;2024-01-15T03:05:14;95506.94;;;-0.91;67.96
48216;BME280;34005;48.844;10.098;2024-01-15T03:07:42;95506.94;;;-0.91;67.82
48216;BME280;34005;48.844;10.098;2024-01-15T03:10:10;95505.84;;;-0.88;67.91
48216;BME280;34005;48.844;10.098;2024-01-15T03:12:37;95492.94;;;-0.87;68.09
48216;BME280;34005;48.844;10.098;2024-01-15T03:15:07;95508.81;;;-0.83;67.93
48216;BME280;34005;48.844;10.098;2024-01-15T03:17:34;95506.13;;;-0.81;67.91
48216;BME280;34005;48.844;10.098;2024-01-15T03:20:03;95511.22;;;-0.81;67.93
48216;BME280;34005;48.844;10.098;2024-01-15T03:22:30;95505.97;;;-0.80;67.75
48216;BME280;34005;48.844;10.098;2024-01-15T03:24:58;95503.28;;;-0.78;67.80
48216;BME280;34005;48.844;10.098;2024-01-15T03:27:26;95497.22;;;-0.77;67.72
48216;BME280;34005;48.844;10.098;2024-01-15T03:29:53;95501.41;;;-0.76;68.08
48216;BME280;34005;48.844;10.098;2024-01-15T03:32:22;95497.88;;;-0.75;67.65
48216;BME280;34005;48.844;10.098;2024-01-15T03:34:50;95499.34;;;-0.73;68.10
48216;BME280;34005;48.844;10.098;2024-01-15T03:37:19;95507.44;;;-0.68;67.81
48216;BME280;34005;48.844;10.098;2024-01-15T03:39:46;95502.31;;;-0.68;67.93
48216;BME280;34005;48.844;10.098;2024-01-15T03:42:14;95499.59;;;-0.66;67.88
48216;BME280;34005;48.844;10.098;2024-01-15T03:44:42;95496.09;;;-0.65;67.50
48216;BME280;34005;48.844;10.098;2024-01-15T03:47:09;95498.50;;;-0.64;67.50
48216;BME280;34005;48.844;10.098;2024-01-15T03:49:38;95491.66;;;-0.63;67.63
48216;BME280;34005;48.844;10.098;2024-01-15T03:52:06;95501.63;;;-0.60;68.05
48216;BME280;34005;48.844;10.098;2024-01-15T03:54:33;95490.56;;;-0.60;67.97
48216;BME280;34005;48.844;10.098;2024-01-15T03:57:01;95484.66;;;-0.61;67.69
48216;BME280;34005;48.844;10.098;2024-01-15T03:59:29;95488.00;;;-0.60;68.26
48216;BME280;34005;48.844;10.098;2024-01-15T04:01:56;95486.13;;;-0.58;68.20
48216;BME280;34005;48.844;10.098;2024-01-15T04:04:24;95481.00;;;-0.58;67.87
48216;BME280;34005;48.844;10.098;2024-01-15T04:06:53;95480.19;;;-0.59;67.50
48216;BME280;34005;48.844;10.098;2024-01-15T04:09:20;95481.78;;;-0.58;68.33
48216;BME280;34005;48.844;10.098;2024-01-15T04:11:49;95473.97;;;-0.56;68.20
48216;BME280;34005;48.844;10.098;2024-01-15T04:14:16;95478.94;;;-0.55;68.41
48216;BME280;34005;48.844;10.098;2024-01-15T04:16:44;95478.00;;;-0.54;68.06
48216;BME280;34005;48.844;10.098;2024-01-15T04:19:11;95475.31;;;-0.52;68.04
48216;BME280;34005;48.844;10.098;2024-01-15T04:21:39;95469.09;;;-0.50;67.69
48216;BME280;34005;48.844;10.098;2024-01-15T04:24:08;95469.75;;;-0.48;67.86
48216;BME280;34005;48.844;10.098;2024-01-15T04:26:35;95472.84;;;-0.44;68.08
48216;BME280;34005;48.844;10.098;2024-01-15T04:29:03;95475.25;;;-0.43;67.94
48216;BME280;34005;48.844;10.098;2024-01-15T04:31:30;95465.00;;;-0.43;67.73
48216;BME280;34005;48.844;10.098;2024-01-15T04:33:58;95471.59;;;-0.40;67.80
48216;BME280;34005;48.844;10.098;2024-01-15T04:36:25;95468.25;;;-0.40;67.97
48216;BME280;34005;48.844;10.098;2024-01-15T04:38:53;95474.03;;;-0.38;67.93
48216;BME280;34005;48.844;10.098;2024-01-15T04:41:22;95473.91;;;-0.37;67.78
48216;BME280;34005;48.844;10.098;2024-01-15T04:43:49;95468.78;;;-0.37;67.62
48216;BME280;34005;48.844;10.098;2024-01-15T04:46:17;95468.63;;;-0.35;67.85
48216;BME280;34005;48.844;10.098;2024-01-15T04:48:45;95466.06;;;-0.35;67.79
48216;BME280;34005;48.844;10.098;2024-01-15T04:51:13;95466.72;;;-0.33;67.62
48216;BME280;34005;48.844;10.098;2024-01-15T04:53:41;95472.94;;;-0.36;67.61
48216;BME280;34005;48.844;10.098;2024-01-15T04:56:08;95472.13;;;-0.36;67.61
48216;BME280;34005;48.844;10.098;2024-01-15T04:58:37;95462.56;;;-0.34;67.35
48216;BME280;34005;48.844;10.098;2024-01-15T05:01:05;95469.28;;;-0.33;67.47
48216;BME280;34005;48.844;10.098;2024-01-15T05:03:33;95471.72;;;-0.32;67.87
48216;BME280;34005;48.844;10.098;2024-01-15T05:06:00;95457.13;;;-0.31;67.46
48216;BME280;34005;48.844;10.098;2024-01-15T05:08:28;95460.34;;;-0.29;67.62
48216;BME280;34005;48.844;10.098;2024-01-15T05:10:55;95457.66;;;-0.28;67.47
48216;BME280;34005;48.844;10.098;2024-01-15T05:13:23;95454.31;;;-0.28;67.56
48216;BME280;34005;48.844;10.098;2024-01-15T05:15:52;95454.44;;;-0.30;67.48
48216;BME280;34005;48.844;10.098;2024-01-15T05:18:20;95436.50;;;-0.30;67.58
48216;BME280;34005;48.844;10.098;2024-01-15T05:20:47;95439.06;;;-0.30;67.16
48216;BME280;34005;48.844;10.098;2024-01-15T05:23:15;95439.19;;;-0.31;67.45
48216;BME280;34005;48.844;10.098;2024-01-15T05:25:42;95441.63;;;-0.30;67.37
48216;BME280;34005;48.844;10.098;2024-01-15T05:28:10;95434.72;;;-0.29;67.69
48216;BME280;34005;48.844;10.098;2024-01-15T05:30:37;95439.84;;;-0.29;67.22
48216;BME280;34005;48.844;10.098;2024-01-15T05:33:06;95445.78;;;-0.29;67.00
48216;BME280;34005;48.844;10.098;2024-01-15T05:35:35;95444.84;;;-0.28;67.42
48216;BME280;34005;48.844;10.098;2024-01-15T05:38:02;95445.78;;;-0.29;67.42
48216;BME280;34005;48.844;10.098;2024-01-15T05:40:30;95447.41;;;-0.28;67.51
48216;BME280;34005;48.844;10.098;2024-01-15T05:42:57;95443.09;;;-0.27;67.50
48216;BME280;34005;48.844;10.098;2024-01-15T05:45:26;95458.34;;;-0.26;67.00
48216;BME280;34005;48.844;10.098;2024-01-15T05:47:53;95451.31;;;-0.24;67.32
48216;BME280;34005;48.844;10.098;2024-01-15T05:50:23;95440.09;;;-0.23;67.62
48216;BME280;34005;48.844;10.098;2024-01-15T05:52:51;95439.00;;;-0.20;67.61
48216;BME280;34005;48.844;10.098;2024-01-15T05:55:18;95438.72;;;-0.17;67.63
48216;BME280;34005;48.844;10.098;2024-01-15T05:57:46;95436.81;;;-0.15;67.59
48216;BME280;34005;48.844;10.098;2024-01-15T06:00:14;95436.00;;;-0.15;67.31
48216;BME280;34005;48.844;10.098;2024-01-15T06:02:42;95421.44;;;-0.15;67.26
48216;BME280;34005;48.844;10.098;2024-01-15T06:05:09;95413.91;;;-0.16;67.28
48216;BME280;34005;48.844;10.098;2024-01-15T06:07:38;95413.66;;;-0.23;66.98
48216;BME280;34005;48.844;10.098;2024-01-15T06:10:07;95412.34;;;-0.27;67.44
48216;BME280;34005;48.844;10.098;2024-01-15T06:12:34;95410.06;;;-0.30;67.62
48216;BME280;34005;48.844;10.098;2024-01-15T06:15:02;95421.25;;;-0.31;67.82
48216;BME280;34005;48.844;10.098;2024-01-15T06:17:30;95424.78;;;-0.32;67.19
48216;BME280;34005;48.844;10.098;2024-01-15T06:19:58;95420.47;;;-0.32;67.31
48216;BME280;34005;48.844;10.098;2024-01-15T06:22:25;95426.38;;;-0.31;67.00
48216;BME280;34005;48.844;10.098;2024-01-15T06:24:54;95428.16;;;-0.32;66.85
48216;BME280;34005;48.844;10.098;2024-01-15T06:27:22;95437.31;;;-0.29;67.01
48216;BME280;34005;48.844;10.098;2024-01-15T06:29:50;95440.81;;;-0.30;67.45
48216;BME280;34005;48.844;10.098;2024-01-15T06:32:17;95437.16;;;-0.28;67.35
48216;BME280;34005;48.844;10.098;2024-01-15T06:34:45;95427.72;;;-0.27;67.10
48216;BME280;34005;48.844;10.098;2024-01-15T06:37:12;95421.66;;;-0.26;67.30
48216;BME280;34005;48.844;10.098;2024-01-15T06:39:40;95423.91;;;-0.23;67.42
48216;BME280;34005;48.844;10.098;2024-01-15T06:42:09;95427.94;;;-0.21;68.25
48216;BME280;34005;48.844;10.098;2024-01-15T06:44:37;95434.84;;;-0.21;67.31
48216;BME280;34005;48.844;10.098;2024-01-15T06:47:05;95431.59;;;-0.23;67.49
48216;BME280;34005;48.844;10.098;2024-01-15T06:49:32;95427.41;;;-0.24;67.77
48216;BME280;34005;48.844;10.098;2024-01-15T06:52:00;95423.25;;;-0.25;67.45
48216;BME280;34005;48.844;10.098;2024-01-15T06:54:28;95421.66;;;-0.26;67.66
48216;BME280;34005;48.844;10.098;2024-01-15T06:56:55;95418.25;;;-0.27;67.82
48216;BME280;34005;48.844;10.098;2024-01-15T06:59:24;95407.75;;;-0.24;67.59
48216;BME280;34005;48.844;10.098;2024-01-15T07:01:52;95413.66;;;-0.23;68.02
48216;BME280;34005;48.844;10.098;2024-01-15T07:04:19;95418.50;;;-0.20;68.07
48216;BME280;34005;48.844;10.098;2024-01-15T07:06:47;95415.94;;;-0.20;67.59
48216;BME280;34005;48.844;10.098;2024-01-15T07:09:15;95421.22;;;-0.22;67.70
48216;BME280;34005;48.844;10.098;2024-01-15T07:11:44;95422.94;;;-0.22;67.89
48216;BME280;34005;48.844;10.098;2024-01-15T07:14:12;95428.75;;;-0.20;67.50
48216;BME280;34005;48.844;10.098;2024-01-15T07:16:41;95431.31;;;-0.20;67.74
48216;BME280;34005;48.844;10.098;2024-01-15T07:19:13;95426.19;;;-0.20;67.62
48216;BME280;34005;48.844;10.098;2024-01-15T07:21:41;95436.31;;;-0.18;67.83
48216;BME280;34005;48.844;10.098;2024-01-15T07:24:09;95437.25;;;-0.19;67.92
48216;BME280;34005;48.844;10.098;2024-01-15T07:26:37;95443.06;;;-0.17;68.43
48216;BME280;34005;48.844;10.098;2024-01-15T07:29:04;95437.75;;;-0.16;67.86
48216;BME280;34005;48.844;10.098;2024-01-15T07:31:32;95442.75;;;-0.14;68.21
48216;BME280;34005;48.844;10.098;2024-01-15T07:34:01;95445.44;;;-0.16;68.25
48216;BME280;34005;48.844;10.098;2024-01-15T07:36:29;95441.00;;;-0.14;68.36
48216;BME280;34005;48.844;10.098;2024-01-15T07:38:56;95451.63;;;-0.09;68.16
48216;BME280;34005;48.844;10.098;2024-01-15T07:41:24;95444.75;;;-0.08;68.05
48216;BME280;34005;48.844;10.098;2024-01-15T07:43:51;95445.53;;;-0.08;68.30
48216;BME280;34005;48.844;10.098;2024-01-15T07:46:19;95443.50;;;-0.04;68.11
48216;BME280;34005;48.844;10.098;2024-01-15T07:48:47;95442.41;;;-0.02;67.85
48216;BME280;34005;48.844;10.098;2024-01-15T07:51:15;95446.56;;;-0.01;68.28
48216;BME280;34005;48.844;10.098;2024-01-15T07:53:43;95443.88;;;0.01;68.59
48216;BME280;34005;48.844;10.098;2024-01-15T07:56:11;95450.19;;;0.07;68.61
48216;BME280;34005;48.844;10.098;2024-01-15T07:58:38;95451.78;;;0.08;68.42
48216;BME280;34005;48.844;10.098;2024-01-15T08:01:06;95440.56;;;0.09;68.18
48216;BME280;34005;48.844;10.098;2024-01-15T08:03:34;95435.31;;;0.10;68.39
48216;BME280;34005;48.844;10.098;2024-01-15T08:06:01;95425.56;;;0.14;68.81
48216;BME280;34005;48.844;10.098;2024-01-15T08:08:30;95423.16;;;0.12;68.29
48216;BME280;34005;48.844;10.098;2024-01-15T08:10:58;95428.41;;;0.11;68.32
48216;BME280;34005;48.844;10.098;2024-01-15T08:13:26;95422.34;;;0.12;68.21
48216;BME280;34005;48.844;10.098;2024-01-15T08:15:54;95429.06;;;0.13;67.97
48216;BME280;34005;48.844;10.098;2024-01-15T08:18:21;95434.19;;;0.13;68.25
48216;BME280;34005;48.844;10.098;2024-01-15T08:20:49;95431.63;;;0.13;67.95
48216;BME280;34005;48.844;10.098;2024-01-15T08:23:18;95423.94;;;0.13;67.44
48216;BME280;34005;48.844;10.098;2024-01-15T08:25:47;95434.38;;;0.11;67.45
48216;BME280;34005;48.844;10.098;2024-01-15T08:28:15;95428.28;;;0.12;67.69
48216;BME280;34005;48.844;10.098;2024-01-15T08:30:42;95426.38;;;0.14;67.41
48216;BME280;34005;48.844;10.098;2024-01-15T08:33:10;95415.97;;;0.16;67.58
48216;BME280;34005;48.844;10.098;2024-01-15T08:35:47;95421.78;;;0.18;67.41
48216;BME280;34005;48.844;10.098;2024-01-15T08:38:15;95422.69;;;0.17;67.48
48216;BME280;34005;48.844;10.098;2024-01-15T08:40:42;95422.56;;;0.18;67.26
48216;BME280;34005;48.844;10.098;2024-01-15T08:43:12;95425.28;;;0.17;67.26
48216;BME280;34005;48.844;10.098;2024-01-15T08:45:39;95430.41;;;0.17;67.69
48216;BME280;34005;48.844;10.098;2024-01-15T08:48:07;95431.06;;;0.19;67.57
48216;BME280;34005;48.844;10.098;2024-01-15T08:50:35;95437.97;;;0.18;66.96
48216;BME280;34005;48.844;10.098;2024-01-15T08:53:02;95436.31;;;0.17;66.96
48216;BME280;34005;48.844;10.098;2024-01-15T08:55:30;95435.38;;;0.18;66.96
48216;BME280;34005;48.844;10.098;2024-01-15T08:57:58;95425.28;;;0.17;67.30
48216;BME280;34005;48.844;10.098;2024-01-15T09:00:27;95432.97;;;0.17;66.93
48216;BME280;34005;48.844;10.098;2024-01-15T09:02:55;95433.50;;;0.20;66.76
48216;BME280;34005;48.844;10.098;2024-01-15T09:05:22;95431.44;;;0.24;67.14
48216;BME280;34005;48.844;10.098;2024-01-15T09:07:50;95435.47;;;0.27;67.08
48216;BME280;34005;48.844;10.098;2024-01-15T09:10:18;95441.09;;;0.30;66.87
48216;BME280;34005;48.844;10.098;2024-01-15T09:12:46;95436.78;;;0.31;67.25
48216;BME280;34005;48.844;10.098;2024-01-15T09:15:15;95438.53;;;0.30;66.54
48216;BME280;34005;48.844;10.098;2024-01-15T09:17:44;95439.50;;;0.29;66.70
48216;BME280;34005;48.844;10.098;2024-01-15T09:20:12;95437.88;;;0.28;66.68
48216;BME280;34005;48.844;10.098;2024-01-15T09:22:40;95438.53;;;0.30;66.66
48216;BME280;34005;48.844;10.098;2024-01-15T09:25:08;95428.13;;;0.32;66.73
48216;BME280;34005;48.844;10.098;2024-01-15T09:27:36;95426.53;;;0.31;66.44
48216;BME280;34005;48.844;10.098;2024-01-15T09:30:05;95428.94;;;0.32;66.88
48216;BME280;34005;48.844;10.098;2024-01-15T09:32:33;95431.34;;;0.34;66.30
48216;BME280;34005;48.844;10.098;2024-01-15T09:35:02;95418.00;;;0.30;66.26
48216;BME280;34005;48.844;10.098;2024-01-15T09:37:29;95424.47;;;0.34;66.67
48216;BME280;34005;48.844;10.098;2024-01-15T09:40:13;95421.31;;;0.40;66.82
48216;BME280;34005;48.844;10.098;2024-01-15T09:42:41;95420.88;;;0.45;66.50
48216;BME280;34005;48.844;10.098;2024-01-15T09:45:09;95421.38;;;0.49;65.59
48216;BME280;34005;48.844;10.098;2024-01-15T09:47:37;95416.41;;;0.47;65.90
48216;BME280;34005;48.844;10.098;2024-01-15T09:50:12;95407.75;;;0.48;66.03
48216;BME280;34005;48.844;10.098;2024-01-15T09:52:42;95405.03;;;0.50;65.39
48216;BME280;34005;48.844;10.098;2024-01-15T09:55:10;95400.69;;;0.50;65.48
48216;BME280;34005;48.844;10.098;2024-01-15T09:57:39;95403.44;;;0.49;64.88
48216;BME280;34005;48.844;10.098;2024-01-15T10:00:07;95406.00;;;0.49;64.86
48216;BME280;34005;48.844;10.098;2024-01-15T10:02:37;95392.19;;;0.50;65.07
48216;BME280;34005;48.844;10.098;2024-01-15T10:05:07;95394.47;;;0.53;64.69
48216;BME280;34005;48.844;10.098;2024-01-15T10:07:37;95390.00;;;0.55;64.53
48216;BME280;34005;48.844;10.098;2024-01-15T10:10:05;95384.72;;;0.56;64.89
48216;BME280;34005;48.844;10.098;2024-01-15T10:12:34;95386.81;;;0.61;64.46
48216;BME280;34005;48.844;10.098;2024-01-15T10:15:02;95389.09;;;0.64;64.47
48216;BME280;34005;48.844;10.098;2024-01-15T10:17:30;95370.16;;;0.65;63.98
48216;BME280;34005;48.844;10.098;2024-01-15T10:19:58;95368.44;;;0.66;64.16
48216;BME280;34005;48.844;10.098;2024-01-15T10:22:26;95368.56;;;0.64;63.89
48216;BME280;34005;48.844;10.098;2024-01-15T10:24:54;95363.44;;;0.64;63.66
48216;BME280;34005;48.844;10.098;2024-01-15T10:27:22;95355.88;;;0.63;63.67
48216;BME280;34005;48.844;10.098;2024-01-15T10:29:49;95354.28;;;0.61;63.34
48216;BME280;34005;48.844;10.098;2024-01-15T10:32:17;95347.06;;;0.65;63.82
48216;BME280;34005;48.844;10.098;2024-01-15T10:34:45;95348.38;;;0.69;63.64
48216;BME280;34005;48.844;10.098;2024-01-15T10:37:14;95347.44;;;0.70;63.29
48216;BME280;34005;48.844;10.098;2024-01-15T10:39:41;95351.75;;;0.70;63.27
48216;BME280;34005;48.844;10.098;2024-01-15T10:42:10;95345.69;;;0.71;62.33
48216;BME280;34005;48.844;10.098;2024-01-15T10:44:38;95342.97;;;0.72;62.95
48216;BME280;34005;48.844;10.098;2024-01-15T10:47:05;95340.09;;;0.75;62.71
48216;BME280;34005;48.844;10.098;2024-01-15T10:49:33;95327.09;;;0.77;62.60
48216;BME280;34005;48.844;10.098;2024-01-15T10:52:01;95333.84;;;0.78;63.07
48216;BME280;34005;48.844;10.098;2024-01-15T10:54:30;95342.06;;;0.81;62.50
48216;BME280;34005;48.844;10.098;2024-01-15T10:56:57;95343.00;;;0.80;62.39
48216;BME280;34005;48.844;10.098;2024-01-15T10:59:26;95334.34;;;0.81;62.40
48216;BME280;34005;48.844;10.098;2024-01-15T11:01:55;95331.47;;;0.85;62.88
48216;BME280;34005;48.844;10.098;2024-01-15T11:04:23;95331.19;;;0.88;62.88
48216;BME280;34005;48.844;10.098;2024-01-15T11:06:54;95323.31;;;0.89;62.63
48216;BME280;34005;48.844;10.098;2024-01-15T11:09:23;95320.59;;;0.91;63.21
48216;BME280;34005;48.844;10.098;2024-01-15T11:11:53;95330.72;;;0.92;62.79
48216;BME280;34005;48.844;10.098;2024-01-15T11:14:35;95317.72;;;0.94;62.71
48216;BME280;34005;48.844;10.098;2024-01-15T11:17:02;95318.53;;;0.94;62.51
48216;BME280;34005;48.844;10.098;2024-01-15T11:19:38;95333.94;;;0.94;62.62
48216;BME280;34005;48.844;10.098;2024-01-15T11:22:08;95310.97;;;0.93;61.79
48216;BME280;34005;48.844;10.098;2024-01-15T11:24:37;95317.72;;;0.94;62.16
48216;BME280;34005;48.844;10.098;2024-01-15T11:27:06;95318.53;;;0.94;62.88
48216;BME280;34005;48.844;10.098;2024-01-15T11:29:36;95312.44;;;0.95;62.54
48216;BME280;34005;48.844;10.098;2024-01-15T11:32:05;95312.13;;;0.98;62.83
48216;BME280;34005;48.844;10.098;2024-01-15T11:34:53;95313.59;;;1.01;61.68
48216;BME280;34005;48.844;10.098;2024-01-15T11:37:21;95301.69;;;1.00;62.24
48216;BME280;34005;48.844;10.098;2024-01-15T11:39:51;95307.00;;;0.98;62.38
48216;BME280;34005;48.844;10.098;2024-01-15T11:42:21;95300.25;;;0.97;62.80
48216;BME280;34005;48.844;10.098;2024-01-15T11:44:50;95311.31;;;0.98;62.31
48216;BME280;34005;48.844;10.098;2024-01-15T11:47:35;95304.25;;;1.00;62.96
48216;BME280;34005;48.844;10.098;2024-01-15T11:50:08;95323.22;;;0.99;62.95
48216;BME280;34005;48.844;10.098;2024-01-15T11:52:38;95310.19;;;1.00;63.61
48216;BME280;34005;48.844;10.098;2024-01-15T11:55:19;95307.34;;;1.03;64.61
48216;BME280;34005;48.844;10.098;2024-01-15T11:57:49;95299.16;;;1.08;65.11
48216;BME280;34005;48.844;10.098;2024-01-15T12:00:19;95314.91;;;1.05;64.96
48216;BME280;34005;48.844;10.098;2024-01-15T12:02:48;95315.31;;;1.00;65.63
48216;BME280;34005;48.844;10.098;2024-01-15T12:05:18;95323.50;;;0.96;65.98
48216;BME280;34005;48.844;10.098;2024-01-15T12:07:48;95309.06;;;0.95;66.33
48216;BME280;34005;48.844;10.098;2024-01-15T12:10:17;95303.59;;;0.90;67.07
48216;BME280;34005;48.844;10.098;2024-01-15T12:12:57;95311.59;;;0.87;68.13
48216;BME280;34005;48.844;10.098;2024-01-15T12:15:28;95310.13;;;0.84;68.07
48216;BME280;34005;48.844;10.098;2024-01-15T12:17:57;95299.06;;;0.84;68.22
48216;BME280;34005;48.844;10.098;2024-01-15T12:20:25;95300.19;;;0.81;68.32
48216;BME280;34005;48.844;10.098;2024-01-15T12:22:53;95281.25;;;0.82;68.86
48216;BME280;34005;48.844;10.098;2024-01-15T12:25:29;95287.81;;;0.85;69.00
48216;BME280;34005;48.844;10.098;2024-01-15T12:27:57;95278.53;;;0.84;69.39
48216;BME280;34005;48.844;10.098;2024-01-15T12:30:27;95282.03;;;0.82;69.36
48216;BME280;34005;48.844;10.098;2024-01-15T12:32:55;95281.25;;;0.82;69.49
48216;BME280;34005;48.844;10.098;2024-01-15T12:35:23;95277.38;;;0.78;69.93
48216;BME280;34005;48.844;10.098;2024-01-15T12:37:54;95280.06;;;0.76;70.17
48216;BME280;34005;48.844;10.098;2024-01-15T12:40:23;95278.47;;;0.75;70.62
48216;BME280;34005;48.844;10.098;2024-01-15T12:42:51;95271.59;;;0.76;70.38
48216;BME280;34005;48.844;10.098;2024-01-15T12:45:19;95270.94;;;0.74;70.61
48216;BME280;34005;48.844;10.098;2024-01-15T12:47:48;95274.28;;;0.74;70.81
48216;BME280;34005;48.844;10.098;2024-01-15T12:50:17;95270.78;;;0.75;70.96
48216;BME280;34005;48.844;10.098;2024-01-15T12:52:47;95270.47;;;0.78;70.94
48216;BME280;34005;48.844;10.098;2024-01-15T12:55:14;95281.56;;;0.79;70.74
48216;BME280;34005;48.844;10.098;2024-01-15T12:57:42;95278.16;;;0.78;70.35
48216;BME280;34005;48.844;10.098;2024-01-15T13:00:12;95276.25;;;0.80;70.84
48216;BME280;34005;48.844;10.098;2024-01-15T13:02:41;95275.44;;;0.80;70.85